sensor_id;sensor_type;location;lat;lon;timestamp;pressure;altitude;pressure_sealevel;temperature;humidity
59315;BME280;46521;50.160;20.802;2022-08-25T00:01:21;99909.38;;;19.77;72.02
59315;BME280;46521;50.160;20.802;2022-08-25T00:11:23;99909.08;;;19.85;72.22
59315;BME280;46521;50.160;20.802;2022-08-25T00:21:25;99908.54;;;19.76;72.20
59315;BME280;46521;50.160;20.802;2022-08-25T00:31:27;99902.26;;;19.64;72.13
59315;BME280;46521;50.160;20.802;2022-08-25T00:41:28;99898.25;;;19.48;72.43
59315;BME280;46521;50.160;20.802;2022-08-25T00:52:00;99892.00;;;19.36;72.86
59315;BME280;46521;50.160;20.802;2022-08-25T01:02:05;99890.85;;;19.25;72.82
59315;BME280;46521;50.160;20.802;2022-08-25T01:12:07;99891.66;;;19.25;73.10
59315;BME280;46521;50.160;20.802;2022-08-25T01:22:09;99885.92;;;19.22;73.03
59315;BME280;46521;50.160;20.802;2022-08-25T01:32:12;99880.56;;;19.22;73.06
59315;BME280;46521;50.160;20.802;2022-08-25T01:42:37;99880.88;;;19.07;73.19
59315;BME280;46521;50.160;20.802;2022-08-25T02:03:08;99871.45;;;18.98;73.55
59315;BME280;46521;50.160;20.802;2022-08-25T02:13:09;99880.37;;;18.91;73.54
59315;BME280;46521;50.160;20.802;2022-08-25T02:23:11;99857.47;;;18.96;73.85
59315;BME280;46521;50.160;20.802;2022-08-25T02:33:12;99850.95;;;19.10;73.61
59315;BME280;46521;50.160;20.802;2022-08-25T02:43:14;99845.74;;;19.15;73.58
59315;BME280;46521;50.160;20.802;2022-08-25T02:53:16;99840.52;;;19.02;73.76
59315;BME280;46521;50.160;20.802;2022-08-25T03:03:19;99834.81;;;18.91;73.52
59315;BME280;46521;50.160;20.802;2022-08-25T03:13:21;99850.54;;;18.81;73.68
59315;BME280;46521;50.160;20.802;2022-08-25T03:23:22;99853.22;;;18.81;73.56
59315;BME280;46521;50.160;20.802;2022-08-25T03:33:24;99860.63;;;18.79;73.71
59315;BME280;46521;50.160;20.802;2022-08-25T03:43:25;99856.38;;;18.71;73.39
59315;BME280;46521;50.160;20.802;2022-08-25T03:53:27;99850.81;;;18.73;73.55
59315;BME280;46521;50.160;20.802;2022-08-25T04:03:28;99843.36;;;18.75;73.56
59315;BME280;46521;50.160;20.802;2022-08-25T04:13:29;99843.53;;;18.80;73.71
59315;BME280;46521;50.160;20.802;2022-08-25T04:23:31;99851.13;;;18.83;73.77
59315;BME280;46521;50.160;20.802;2022-08-25T04:33:33;99846.18;;;18.87;73.98
59315;BME280;46521;50.160;20.802;2022-08-25T04:43:36;99841.23;;;18.90;73.95
59315;BME280;46521;50.160;20.802;2022-08-25T04:53:39;99841.32;;;19.02;74.10
59315;BME280;46521;50.160;20.802;2022-08-25T05:03:42;99834.77;;;19.23;74.10
59315;BME280;46521;50.160;20.802;2022-08-25T05:13:45;99835.83;;;19.41;74.27
59315;BME280;46521;50.160;20.802;2022-08-25T05:23:47;99842.25;;;19.58;74.38
59315;BME280;46521;50.160;20.802;2022-08-25T05:33:49;99838.27;;;19.86;74.00
59315;BME280;46521;50.160;20.802;2022-08-25T05:43:51;99849.13;;;20.10;74.14
59315;BME280;46521;50.160;20.802;2022-08-25T05:53:52;99848.36;;;20.21;74.31
59315;BME280;46521;50.160;20.802;2022-08-25T06:03:54;99840.27;;;20.40;73.97
59315;BME280;46521;50.160;20.802;2022-08-25T06:13:55;99846.82;;;20.74;74.35
59315;BME280;46521;50.160;20.802;2022-08-25T06:23:57;99847.58;;;21.17;73.80
59315;BME280;46521;50.160;20.802;2022-08-25T06:33:58;99849.46;;;21.52;73.63
59315;BME280;46521;50.160;20.802;2022-08-25T06:44:00;99847.53;;;21.88;73.56
59315;BME280;46521;50.160;20.802;2022-08-25T06:54:02;99853.70;;;22.70;72.93
59315;BME280;46521;50.160;20.802;2022-08-25T07:04:05;99855.02;;;23.35;71.76
59315;BME280;46521;50.160;20.802;2022-08-25T07:14:09;99859.50;;;23.85;70.85
59315;BME280;46521;50.160;20.802;2022-08-25T07:24:13;99866.64;;;24.41;70.58
59315;BME280;46521;50.160;20.802;2022-08-25T07:34:15;99871.44;;;24.88;69.02
59315;BME280;46521;50.160;20.802;2022-08-25T07:44:36;99865.13;;;25.10;69.15
59315;BME280;46521;50.160;20.802;2022-08-25T07:54:39;99858.16;;;25.62;68.33
59315;BME280;46521;50.160;20.802;2022-08-25T08:04:41;99852.63;;;25.94;67.38
59315;BME280;46521;50.160;20.802;2022-08-25T08:14:46;99844.14;;;26.54;67.18
59315;BME280;46521;50.160;20.802;2022-08-25T08:24:48;99843.91;;;26.91;65.55
59315;BME280;46521;50.160;20.802;2022-08-25T08:34:49;99844.15;;;27.26;64.76
59315;BME280;46521;50.160;20.802;2022-08-25T08:45:02;99837.27;;;27.64;63.89
59315;BME280;46521;50.160;20.802;2022-08-25T08:55:16;99836.27;;;28.15;63.17
59315;BME280;46521;50.160;20.802;2022-08-25T09:05:23;99824.30;;;28.56;62.48
59315;BME280;46521;50.160;20.802;2022-08-25T09:36:19;99797.55;;;29.51;59.37
59315;BME280;46521;50.160;20.802;2022-08-25T09:46:26;99794.20;;;30.03;58.83
59315;BME280;46521;50.160;20.802;2022-08-25T09:56:30;99783.28;;;30.41;57.64
59315;BME280;46521;50.160;20.802;2022-08-25T10:06:35;99776.22;;;30.72;56.66
59315;BME280;46521;50.160;20.802;2022-08-25T10:16:44;99764.93;;;30.93;55.71
59315;BME280;46521;50.160;20.802;2022-08-25T11:07:48;99730.56;;;31.98;50.71
59315;BME280;46521;50.160;20.802;2022-08-25T11:17:52;99733.79;;;32.00;50.74
59315;BME280;46521;50.160;20.802;2022-08-25T11:28:17;99714.13;;;32.12;49.32
59315;BME280;46521;50.160;20.802;2022-08-25T11:58:49;99688.19;;;32.09;48.02
59315;BME280;46521;50.160;20.802;2022-08-25T12:09:37;99683.55;;;31.96;47.58
59315;BME280;46521;50.160;20.802;2022-08-25T12:29:44;99673.09;;;31.75;47.39
59315;BME280;46521;50.160;20.802;2022-08-25T12:49:49;99658.30;;;31.54;46.77
59315;BME280;46521;50.160;20.802;2022-08-25T12:59:53;99655.59;;;31.26;45.80
59315;BME280;46521;50.160;20.802;2022-08-25T13:20:25;99623.27;;;31.05;44.30
59315;BME280;46521;50.160;20.802;2022-08-25T13:30:33;99618.58;;;30.92;43.92
59315;BME280;46521;50.160;20.802;2022-08-25T13:40:35;99630.83;;;30.95;43.33
59315;BME280;46521;50.160;20.802;2022-08-25T14:01:14;99618.39;;;30.88;42.07
59315;BME280;46521;50.160;20.802;2022-08-25T14:21:30;99585.14;;;30.72;41.40
59315;BME280;46521;50.160;20.802;2022-08-25T14:31:35;99574.72;;;30.75;41.60
59315;BME280;46521;50.160;20.802;2022-08-25T14:41:40;99576.53;;;30.65;41.43
59315;BME280;46521;50.160;20.802;2022-08-25T14:51:42;99565.73;;;30.46;41.15
59315;BME280;46521;50.160;20.802;2022-08-25T15:01:44;99565.39;;;30.34;40.36
59315;BME280;46521;50.160;20.802;2022-08-25T15:11:51;99561.55;;;30.21;40.38
59315;BME280;46521;50.160;20.802;2022-08-25T15:21:53;99558.92;;;30.16;40.66
59315;BME280;46521;50.160;20.802;2022-08-25T15:31:56;99555.56;;;30.05;40.14
59315;BME280;46521;50.160;20.802;2022-08-25T15:41:57;99555.03;;;29.89;39.73
59315;BME280;46521;50.160;20.802;2022-08-25T15:51:59;99550.70;;;29.69;39.51
59315;BME280;46521;50.160;20.802;2022-08-25T16:02:01;99537.91;;;29.51;39.15
59315;BME280;46521;50.160;20.802;2022-08-25T16:12:03;99538.45;;;29.34;38.98
59315;BME280;46521;50.160;20.802;2022-08-25T16:22:05;99539.31;;;29.10;39.64
59315;BME280;46521;50.160;20.802;2022-08-25T16:32:07;99523.05;;;28.86;39.49
59315;BME280;46521;50.160;20.802;2022-08-25T16:42:09;99536.09;;;28.65;40.12
59315;BME280;46521;50.160;20.802;2022-08-25T16:52:11;99543.42;;;28.40;41.36
59315;BME280;46521;50.160;20.802;2022-08-25T17:02:31;99537.28;;;28.05;43.23
59315;BME280;46521;50.160;20.802;2022-08-25T17:12:33;99548.20;;;27.65;44.63
59315;BME280;46521;50.160;20.802;2022-08-25T17:22:35;99555.77;;;27.34;44.97
59315;BME280;46521;50.160;20.802;2022-08-25T17:32:36;99558.91;;;27.02;46.58
59315;BME280;46521;50.160;20.802;2022-08-25T17:42:38;99567.98;;;26.76;46.49
59315;BME280;46521;50.160;20.802;2022-08-25T17:52:40;99568.03;;;26.56;45.63
59315;BME280;46521;50.160;20.802;2022-08-25T18:02:42;99574.61;;;26.29;47.04
59315;BME280;46521;50.160;20.802;2022-08-25T18:12:43;99573.57;;;25.99;47.84
59315;BME280;46521;50.160;20.802;2022-08-25T18:22:45;99575.72;;;25.82;47.52
59315;BME280;46521;50.160;20.802;2022-08-25T18:32:47;99578.42;;;25.66;47.55
59315;BME280;46521;50.160;20.802;2022-08-25T18:42:55;99584.34;;;25.48;48.29
59315;BME280;46521;50.160;20.802;2022-08-25T18:53:03;99586.98;;;25.27;48.83
59315;BME280;46521;50.160;20.802;2022-08-25T19:03:06;99592.34;;;25.07;48.88
59315;BME280;46521;50.160;20.802;2022-08-25T19:13:08;99595.52;;;24.88;49.47
59315;BME280;46521;50.160;20.802;2022-08-25T19:23:11;99599.77;;;24.69;50.04
59315;BME280;46521;50.160;20.802;2022-08-25T19:33:13;99584.55;;;24.57;49.57
59315;BME280;46521;50.160;20.802;2022-08-25T19:43:16;99576.38;;;24.47;49.18
59315;BME280;46521;50.160;20.802;2022-08-25T19:53:18;99580.62;;;24.33;49.66
59315;BME280;46521;50.160;20.802;2022-08-25T20:03:19;99579.39;;;24.13;49.91
59315;BME280;46521;50.160;20.802;2022-08-25T20:13:21;99589.02;;;23.99;50.00
59315;BME280;46521;50.160;20.802;2022-08-25T20:33:48;99580.66;;;23.73;50.66
59315;BME280;46521;50.160;20.802;2022-08-25T20:54:21;99593.51;;;23.33;51.03
59315;BME280;46521;50.160;20.802;2022-08-25T21:04:25;99598.38;;;23.09;51.64
59315;BME280;46521;50.160;20.802;2022-08-25T21:14:29;99589.52;;;22.92;51.91
59315;BME280;46521;50.160;20.802;2022-08-25T21:24:30;99586.61;;;22.54;52.85
59315;BME280;46521;50.160;20.802;2022-08-25T21:34:32;99587.43;;;22.21;53.66
59315;BME280;46521;50.160;20.802;2022-08-25T21:44:33;99587.12;;;22.00;54.04
59315;BME280;46521;50.160;20.802;2022-08-25T21:54:35;99581.55;;;21.56;54.54
59315;BME280;46521;50.160;20.802;2022-08-25T22:04:38;99586.01;;;21.50;54.92
59315;BME280;46521;50.160;20.802;2022-08-25T22:14:40;99589.77;;;21.49;55.21
59315;BME280;46521;50.160;20.802;2022-08-25T22:24:41;99577.89;;;21.33;55.56
59315;BME280;46521;50.160;20.802;2022-08-25T22:34:44;99561.75;;;21.33;55.72
59315;BME280;46521;50.160;20.802;2022-08-25T22:44:47;99565.97;;;21.29;56.02
59315;BME280;46521;50.160;20.802;2022-08-25T22:54:49;99558.63;;;21.24;55.83
59315;BME280;46521;50.160;20.802;2022-08-25T23:04:50;99549.45;;;21.09;56.28
59315;BME280;46521;50.160;20.802;2022-08-25T23:14:52;99536.88;;;20.97;56.31
59315;BME280;46521;50.160;20.802;2022-08-25T23:24:54;99538.40;;;20.93;56.40
59315;BME280;46521;50.160;20.802;2022-08-25T23:34:57;99536.33;;;20.83;56.67
59315;BME280;46521;50.160;20.802;2022-08-25T23:44:59;99527.67;;;20.81;56.74
59315;BME280;46521;50.160;20.802;2022-08-25T23:55:00;99523.06;;;20.65;57.09
